Time;durP1;ratioP1;P1;durP2;ratioP2;P2;SDS_P1;SDS_P2;PMS_P1;PMS_P2;Temp;Humidity;BMP_temperature;BMP_pressure;BME280_temperature;BME280_humidity;BME280_pressure;Samples;Min_cycle;Max_cycle;Signal;HPM_P1;HPM_P2
2023/05/12 00:01:48;;;;;;;140.32;78.95;;;;;;;23.44;66.39;98099.22;5088657;28;20055;-64
2023/05/12 00:04:17;;;;;;;120.90;76.55;;;;;;;23.43;66.45;98105.69;5088303;28;20075;-66
2023/05/12 00:06:47;;;;;;;133.20;77.80;;;;;;;23.41;66.70;98105.19;5088889;28;20132;-63
2023/05/12 00:09:16;;;;;;;131.30;75.38;;;;;;;23.40;66.77;98114.38;5088182;28;20105;-62
2023/05/12 00:11:47;;;;;;;139.63;80.03;;;;;;;23.39;66.94;98119.00;5088349;28;20055;-63
2023/05/12 00:14:17;;;;;;;133.88;77.70;;;;;;;23.40;66.98;98128.72;5087861;28;20521;-63
2023/05/12 00:16:50;;;;;;;139.43;79.75;;;;;;;23.40;66.97;98125.19;5090069;28;20507;-63
2023/05/12 00:19:20;;;;;;;130.63;76.55;;;;;;;23.38;67.34;98124.66;5087637;28;20070;-63
2023/05/12 00:21:50;;;;;;;129.38;77.88;;;;;;;23.41;67.46;98129.53;5087837;28;20425;-64
2023/05/12 00:24:19;;;;;;;124.15;77.20;;;;;;;23.41;67.41;98129.53;5086900;28;20163;-63
2023/05/12 00:26:48;;;;;;;132.77;78.90;;;;;;;23.42;67.52;98123.00;5087729;28;20077;-65
2023/05/12 00:29:18;;;;;;;141.73;80.53;;;;;;;23.43;67.56;98130.03;5087169;28;20151;-64
2023/05/12 00:31:47;;;;;;;135.32;78.43;;;;;;;23.43;67.55;98135.44;5068281;28;20419;-64
2023/05/12 00:34:17;;;;;;;132.32;82.72;;;;;;;23.44;67.35;98137.06;5069251;28;20093;-63
2023/05/12 00:36:46;;;;;;;135.57;79.22;;;;;;;23.46;67.40;98142.97;5069562;28;20044;-63
2023/05/12 00:39:15;;;;;;;130.82;78.05;;;;;;;23.47;67.61;98134.59;5086808;28;20124;-64
2023/05/12 00:41:46;;;;;;;138.68;77.53;;;;;;;23.49;67.52;98135.13;5069223;28;20772;-65
2023/05/12 00:44:17;;;;;;;123.45;77.78;;;;;;;23.53;67.50;98128.03;5068548;28;20043;-63
2023/05/12 00:46:46;;;;;;;133.80;79.18;;;;;;;23.57;67.96;98126.34;5073467;28;20055;-64
2023/05/12 00:49:16;;;;;;;137.90;79.32;;;;;;;23.62;67.60;98129.00;5069041;28;20056;-64
2023/05/12 00:51:45;;;;;;;133.20;80.82;;;;;;;23.65;67.38;98125.69;5069538;28;20040;-64
2023/05/12 00:54:16;;;;;;;131.52;81.40;;;;;;;23.72;67.55;98133.47;5069082;28;20047;-63
2023/05/12 00:56:45;;;;;;;139.52;82.88;;;;;;;23.77;67.70;98133.38;5069294;28;20539;-63
2023/05/12 00:59:15;;;;;;;131.95;83.65;;;;;;;23.80;67.30;98137.41;5069126;28;20044;-64
2023/05/12 01:01:45;;;;;;;134.77;84.85;;;;;;;23.85;67.29;98145.47;5062483;28;20086;-64
2023/05/12 01:04:16;;;;;;;129.93;83.32;;;;;;;23.91;67.43;98150.50;5068202;28;20543;-64
2023/05/12 01:07:04;;;;;;;142.88;83.20;;;;;;;23.95;67.06;98148.81;5069194;28;20649;-64
2023/05/12 01:09:33;;;;;;;138.38;86.68;;;;;;;24.02;66.99;98151.16;5068913;28;20101;-64
2023/05/12 01:12:03;;;;;;;143.68;86.18;;;;;;;24.07;66.72;98149.19;5068477;28;20134;-64
2023/05/12 01:14:34;;;;;;;141.35;87.00;;;;;;;24.12;66.34;98159.91;5068951;28;20625;-64
2023/05/12 01:17:11;;;;;;;141.25;85.57;;;;;;;24.18;65.97;98155.28;5086595;28;20052;-64
2023/05/12 01:19:49;;;;;;;140.50;85.50;;;;;;;24.26;65.59;98164.63;5068713;28;20051;-64
2023/05/12 01:22:19;;;;;;;144.23;86.25;;;;;;;24.33;65.45;98159.66;5068206;28;20357;-63
2023/05/12 01:24:58;;;;;;;138.35;85.13;;;;;;;24.41;65.55;98164.38;5069363;28;20052;-63
2023/05/12 01:27:30;;;;;;;137.85;85.43;;;;;;;24.49;65.07;98166.41;5065160;28;20052;-63
2023/05/12 01:30:03;;;;;;;139.52;86.05;;;;;;;24.56;64.63;98167.63;5048728;28;20129;-66
2023/05/12 01:32:35;;;;;;;138.45;88.05;;;;;;;24.63;64.38;98167.28;5062546;28;20518;-65
2023/05/12 01:35:06;;;;;;;132.68;84.18;;;;;;;24.72;63.99;98178.22;5068704;28;20048;-64
2023/05/12 01:37:37;;;;;;;136.95;84.90;;;;;;;24.79;63.49;98176.75;5067789;28;20048;-63
2023/05/12 01:40:08;;;;;;;137.40;85.82;;;;;;;24.89;62.82;98186.63;5068289;28;20059;-64
2023/05/12 01:42:40;;;;;;;134.15;83.22;;;;;;;24.99;62.36;98176.44;5068199;28;20132;-64
2023/05/12 01:45:11;;;;;;;138.75;84.05;;;;;;;25.21;62.24;98172.22;5050881;28;20525;-64
2023/05/12 01:47:41;;;;;;;135.25;82.57;;;;;;;25.62;61.77;98177.69;5068830;28;20071;-65
2023/05/12 01:50:10;;;;;;;127.90;78.18;;;;;;;26.32;60.38;98187.00;5085616;28;20052;-61
2023/05/12 01:52:40;;;;;;;126.72;76.68;;;;;;;27.10;58.14;98179.38;5067937;28;20047;-62
2023/05/12 01:55:12;;;;;;;113.80;71.93;;;;;;;27.78;56.26;98186.22;5068135;28;20090;-62
2023/05/12 01:57:52;;;;;;;114.18;69.55;;;;;;;28.36;54.41;98192.09;5068086;28;20048;-63
2023/05/12 02:00:22;;;;;;;108.63;69.47;;;;;;;28.77;52.50;98190.78;5067756;28;20550;-63
2023/05/12 02:02:55;;;;;;;102.53;67.70;;;;;;;29.14;50.32;98202.88;5077382;28;20167;-64
2023/05/12 02:05:25;;;;;;;98.15;66.03;;;;;;;29.42;49.46;98204.91;5066689;28;20062;-64
2023/05/12 02:07:54;;;;;;;99.43;65.45;;;;;;;29.73;48.86;98209.25;5084577;28;20058;-64
2023/05/12 02:10:24;;;;;;;97.45;63.28;;;;;;;30.01;47.74;98217.78;5066010;28;20043;-63
2023/05/12 02:12:53;;;;;;;95.00;62.20;;;;;;;30.21;46.08;98215.09;5066361;28;20044;-63
2023/05/12 02:15:22;;;;;;;96.55;60.05;;;;;;;30.41;44.70;98216.19;5051608;28;20048;-64
2023/05/12 02:17:54;;;;;;;98.88;59.88;;;;;;;30.67;43.10;98221.50;5068472;28;20629;-64
2023/05/12 02:20:25;;;;;;;99.15;58.28;;;;;;;30.85;42.13;98222.91;5067763;28;20055;-64
2023/05/12 02:22:54;;;;;;;106.28;59.25;;;;;;;31.05;41.78;98227.56;5060102;28;20352;-64
2023/05/12 02:25:24;;;;;;;95.40;56.88;;;;;;;31.20;41.72;98237.09;5063920;28;20052;-64
2023/05/12 02:27:53;;;;;;;87.85;55.95;;;;;;;31.29;41.28;98234.25;5094736;28;20044;-65
2023/05/12 02:30:23;;;;;;;80.95;53.67;;;;;;;31.40;38.76;98240.88;5067941;28;20548;-64
2023/05/12 02:32:52;;;;;;;90.28;53.45;;;;;;;31.49;39.86;98244.31;5056222;28;20048;-65
2023/05/12 02:35:21;;;;;;;89.03;55.22;;;;;;;31.54;38.13;98249.56;5066804;28;20056;-65
2023/05/12 02:37:51;;;;;;;90.38;55.35;;;;;;;31.64;40.35;98249.94;5068173;28;20048;-67
2023/05/12 02:40:21;;;;;;;85.72;51.38;;;;;;;31.72;40.61;98256.47;5051094;28;20044;-64
2023/05/12 02:42:50;;;;;;;77.97;49.95;;;;;;;31.81;38.54;98262.63;5066751;28;20040;-65
2023/05/12 02:45:19;;;;;;;68.45;44.45;;;;;;;31.83;38.16;98262.25;5061129;28;20048;-65
2023/05/12 02:47:49;;;;;;;64.90;43.00;;;;;;;31.87;40.79;98265.91;5046189;28;20059;-64
2023/05/12 02:50:20;;;;;;;76.90;46.22;;;;;;;31.73;41.30;98263.53;5064969;28;20056;-65
2023/05/12 02:52:50;;;;;;;71.50;45.58;;;;;;;31.72;41.88;98269.34;5065135;28;20051;-65
2023/05/12 02:55:20;;;;;;;72.13;46.28;;;;;;;31.72;41.31;98261.94;5066258;28;20075;-64
2023/05/12 02:57:49;;;;;;;72.25;44.58;;;;;;;31.78;37.93;98268.78;5067721;28;20058;-66
2023/05/12 03:00:18;;;;;;;63.28;41.90;;;;;;;31.80;39.61;98271.97;5065508;28;20052;-64
2023/05/12 03:02:48;;;;;;;60.50;41.60;;;;;;;31.76;39.56;98278.47;5066720;28;20072;-63
2023/05/12 03:05:17;;;;;;;62.95;39.58;;;;;;;31.65;39.17;98278.91;5061600;28;20044;-66
2023/05/12 03:07:51;;;;;;;56.83;36.38;;;;;;;31.56;36.75;98280.16;5066986;28;20048;-63
2023/05/12 03:10:21;;;;;;;59.47;37.80;;;;;;;31.50;37.06;98282.31;5066051;28;20059;-63
2023/05/12 03:12:50;;;;;;;62.60;38.03;;;;;;;31.38;39.05;98279.53;5067397;28;20567;-65
2023/05/12 03:15:20;;;;;;;61.80;36.83;;;;;;;31.06;38.01;98283.91;5063331;28;20608;-63
2023/05/12 03:17:50;;;;;;;58.33;32.38;;;;;;;30.91;37.72;98281.75;5066539;28;20509;-65
2023/05/12 03:20:19;;;;;;;53.50;29.90;;;;;;;31.04;38.57;98282.63;5066813;28;20125;-65
2023/05/12 03:22:49;;;;;;;44.05;26.25;;;;;;;30.73;37.33;98274.81;5069875;28;20083;-64
2023/05/12 03:25:18;;;;;;;37.03;21.52;;;;;;;30.77;35.81;98286.69;5070720;28;20054;-63
2023/05/12 03:27:48;;;;;;;38.05;21.55;;;;;;;30.97;36.08;98279.63;5070729;28;20194;-62
2023/05/12 03:30:17;;;;;;;38.60;21.65;;;;;;;31.14;35.38;98287.69;5086091;28;20051;-64
2023/05/12 03:32:47;;;;;;;40.83;22.48;;;;;;;31.15;36.02;98287.34;5070140;28;20037;-63
2023/05/12 03:35:16;;;;;;;45.55;23.17;;;;;;;31.17;37.24;98287.00;5070725;28;20544;-63
2023/05/12 03:37:45;;;;;;;39.50;23.20;;;;;;;31.14;36.30;98280.28;5070207;28;20051;-64
2023/05/12 03:40:17;;;;;;;43.78;24.83;;;;;;;31.14;37.66;98285.75;5071075;28;20048;-64
2023/05/12 03:42:47;;;;;;;44.33;25.00;;;;;;;31.09;38.02;98291.44;5070436;28;20040;-64
2023/05/12 03:45:18;;;;;;;43.08;24.10;;;;;;;31.21;39.02;98302.41;5069566;28;20280;-63
2023/05/12 03:47:48;;;;;;;44.13;24.15;;;;;;;31.25;39.16;98299.03;5071501;28;20044;-64
2023/05/12 03:50:17;;;;;;;43.50;25.20;;;;;;;31.28;39.51;98298.34;5070350;28;20102;-64
2023/05/12 03:52:47;;;;;;;46.10;26.63;;;;;;;31.31;37.32;98298.44;5070364;28;20367;-64
2023/05/12 03:55:17;;;;;;;60.65;28.88;;;;;;;31.28;36.95;98299.13;5070059;28;20047;-64
2023/05/12 03:57:48;;;;;;;56.53;28.55;;;;;;;31.35;39.00;98299.38;5069985;28;20788;-64
2023/05/12 04:00:18;;;;;;;50.42;28.98;;;;;;;31.36;39.18;98297.44;5069834;28;20775;-64
2023/05/12 04:02:47;;;;;;;51.83;28.33;;;;;;;31.53;39.80;98295.31;5069331;28;20048;-63
2023/05/12 04:05:17;;;;;;;52.45;29.10;;;;;;;31.55;38.82;98300.50;5069263;28;20059;-62
2023/05/12 04:07:47;;;;;;;53.60;27.73;;;;;;;31.36;38.81;98302.91;5092034;28;20126;-62
2023/05/12 04:10:16;;;;;;;53.05;26.35;;;;;;;31.63;35.51;98296.84;5069842;28;20471;-63
2023/05/12 04:12:46;;;;;;;49.13;27.35;;;;;;;31.90;37.33;98300.88;5038080;28;20074;-63
2023/05/12 04:15:16;;;;;;;41.47;23.75;;;;;;;31.86;37.16;98306.22;5069136;28;20075;-62
2023/05/12 04:17:46;;;;;;;53.70;22.92;;;;;;;31.81;35.51;98309.19;5070412;28;20055;-62
2023/05/12 04:20:15;;;;;;;39.65;20.45;;;;;;;31.89;35.14;98305.53;5069932;28;20048;-61
2023/05/12 04:22:46;;;;;;;34.55;20.88;;;;;;;32.07;35.00;98297.91;5070456;28;20066;-64
2023/05/12 04:25:15;;;;;;;39.95;19.35;;;;;;;32.13;35.10;98301.25;5069798;28;20122;-63
2023/05/12 04:27:44;;;;;;;32.00;17.92;;;;;;;32.02;34.25;98300.84;5069788;28;20064;-63
2023/05/12 04:30:15;;;;;;;36.63;20.63;;;;;;;32.14;33.88;98308.28;5069837;28;20048;-63
2023/05/12 04:32:47;;;;;;;39.20;19.15;;;;;;;32.17;34.08;98297.47;5069860;28;20536;-64
2023/05/12 04:35:16;;;;;;;43.10;18.90;;;;;;;32.29;32.87;98300.19;5070000;28;20058;-65
2023/05/12 04:37:46;;;;;;;33.20;18.02;;;;;;;32.44;31.30;98306.91;5070246;28;20052;-63
2023/05/12 04:40:16;;;;;;;26.15;16.00;;;;;;;32.69;32.79;98308.47;5037148;28;20394;-62
2023/05/12 04:42:46;;;;;;;28.95;16.15;;;;;;;32.75;33.73;98303.56;5086963;28;20044;-63
2023/05/12 04:45:16;;;;;;;32.00;16.02;;;;;;;32.43;32.32;98308.06;5069885;28;20048;-63
2023/05/12 04:47:46;;;;;;;30.02;14.48;;;;;;;32.11;31.92;98306.25;5072786;28;20048;-64
2023/05/12 04:50:16;;;;;;;23.23;12.85;;;;;;;32.45;30.86;98309.28;5072478;28;20055;-64
2023/05/12 04:52:45;;;;;;;22.83;12.38;;;;;;;32.67;31.58;98307.22;5074620;28;20503;-64
2023/05/12 04:55:16;;;;;;;32.25;13.82;;;;;;;32.52;33.83;98305.97;5069536;28;20051;-62
2023/05/12 04:57:46;;;;;;;27.40;14.00;;;;;;;32.57;34.26;98311.22;5052655;28;20052;-64
2023/05/12 05:00:16;;;;;;;24.10;15.52;;;;;;;32.88;33.02;98296.88;5052021;28;20052;-62
2023/05/12 05:02:46;;;;;;;31.73;16.65;;;;;;;33.12;32.21;98294.03;5068484;28;20044;-64
2023/05/12 05:05:16;;;;;;;38.03;15.88;;;;;;;32.85;32.01;98292.06;5067541;28;20052;-63
2023/05/12 05:07:47;;;;;;;24.15;13.25;;;;;;;32.76;33.32;98291.41;5070116;28;20047;-61
2023/05/12 05:10:17;;;;;;;30.23;12.20;;;;;;;32.82;32.72;98293.59;5049137;28;20060;-63
2023/05/12 05:12:47;;;;;;;28.35;11.20;;;;;;;32.93;33.93;98291.91;5068056;28;20040;-64
2023/05/12 05:15:18;;;;;;;22.13;11.23;;;;;;;33.00;34.61;98293.28;5075927;28;20536;-64
2023/05/12 05:17:48;;;;;;;22.15;10.23;;;;;;;33.01;34.59;98297.63;5075362;28;20109;-64
2023/05/12 05:20:18;;;;;;;20.92;9.73;;;;;;;33.05;34.61;98291.09;5074612;28;20399;-64
2023/05/12 05:22:48;;;;;;;25.05;10.35;;;;;;;33.09;33.75;98293.94;5073615;28;20047;-63
2023/05/12 05:25:19;;;;;;;23.50;11.13;;;;;;;32.96;33.02;98295.94;5074429;28;20043;-63
2023/05/12 05:27:48;;;;;;;19.20;9.02;;;;;;;32.67;32.96;98297.03;5078441;28;20418;-64
2023/05/12 05:30:18;;;;;;;15.85;7.50;;;;;;;32.74;32.86;98296.47;5071827;28;20144;-62
2023/05/12 05:32:47;;;;;;;20.48;8.10;;;;;;;32.88;32.38;98292.16;5078565;28;20486;-64
2023/05/12 05:35:18;;;;;;;16.70;7.97;;;;;;;32.78;33.41;98303.66;5060184;28;20039;-64
2023/05/12 05:37:52;;;;;;;22.98;8.27;;;;;;;32.61;36.05;98301.16;5058453;28;20156;-62
2023/05/12 05:40:22;;;;;;;20.98;7.32;;;;;;;32.45;31.41;98306.56;5092686;28;20096;-63
2023/05/12 05:42:51;;;;;;;22.00;8.57;;;;;;;32.67;33.26;98308.03;5070270;28;20486;-61
2023/05/12 05:45:21;;;;;;;22.08;7.82;;;;;;;33.00;31.68;98301.50;5076368;28;21584;-62
2023/05/12 05:47:52;;;;;;;15.63;7.80;;;;;;;33.24;31.84;98298.66;5075620;28;20531;-62
2023/05/12 05:50:21;;;;;;;12.70;7.03;;;;;;;33.42;31.13;98298.00;5071785;28;20147;-63
2023/05/12 05:52:53;;;;;;;15.32;7.53;;;;;;;33.52;31.67;98299.44;5064340;28;20101;-63
2023/05/12 05:55:24;;;;;;;17.75;7.10;;;;;;;33.68;31.17;98303.00;5057748;28;20068;-62
2023/05/12 05:57:54;;;;;;;13.82;6.90;;;;;;;33.74;33.04;98298.88;5067893;28;20045;-62
2023/05/12 06:00:24;;;;;;;15.13;6.63;;;;;;;33.38;34.39;98299.06;5074426;28;20075;-62
2023/05/12 06:02:54;;;;;;;14.13;6.65;;;;;;;33.15;31.96;98295.31;5053013;28;20067;-63
2023/05/12 06:05:23;;;;;;;19.80;6.97;;;;;;;33.18;29.29;98300.09;5066245;28;20040;-62
2023/05/12 06:07:53;;;;;;;15.73;7.10;;;;;;;33.38;31.21;98304.56;5066607;28;20059;-64
2023/05/12 06:10:22;;;;;;;17.52;7.22;;;;;;;33.23;34.30;98300.66;5050111;28;20064;-63
2023/05/12 06:12:52;;;;;;;18.85;8.00;;;;;;;33.43;33.31;98290.56;5068505;28;20031;-64
2023/05/12 06:15:21;;;;;;;17.50;8.93;;;;;;;33.35;37.06;98294.28;5065897;28;20483;-63
2023/05/12 06:17:51;;;;;;;14.70;8.02;;;;;;;33.19;35.18;98293.47;5085772;28;20059;-63
2023/05/12 06:20:22;;;;;;;17.80;8.23;;;;;;;33.18;35.75;98291.88;5067923;28;20159;-61
2023/05/12 06:22:51;;;;;;;18.67;7.82;;;;;;;32.92;32.79;98287.59;5067392;28;20048;-62
2023/05/12 06:25:20;;;;;;;18.77;7.65;;;;;;;32.86;32.63;98282.69;5067773;28;20780;-61
2023/05/12 06:27:51;;;;;;;16.90;7.28;;;;;;;32.93;33.13;98275.47;5068265;28;20044;-61
2023/05/12 06:30:21;;;;;;;17.02;6.18;;;;;;;32.95;31.00;98284.16;5067373;28;20048;-62
2023/05/12 06:32:54;;;;;;;16.73;6.30;;;;;;;33.20;32.28;98278.56;5054755;28;20048;-63
2023/05/12 06:35:24;;;;;;;12.07;6.72;;;;;;;33.32;33.70;98270.28;5062164;28;20771;-61
2023/05/12 06:37:53;;;;;;;16.15;6.70;;;;;;;33.12;33.87;98272.06;5048192;28;20605;-63
2023/05/12 06:40:23;;;;;;;19.52;7.82;;;;;;;33.11;32.27;98278.69;5082938;28;20044;-64
2023/05/12 06:42:53;;;;;;;14.75;6.13;;;;;;;32.93;33.97;98267.22;5085460;28;20044;-62
2023/05/12 06:45:25;;;;;;;;;;;;;;;32.92;34.30;98264.84;5051235;28;20048;-64
2023/05/12 06:47:56;;;;;;;14.80;6.97;;;;;;;32.94;35.69;98268.03;5085319;28;19924;-62
2023/05/12 06:50:27;;;;;;;15.20;5.97;;;;;;;33.05;34.63;98268.34;5085393;28;20047;-61
2023/05/12 06:52:56;;;;;;;15.93;6.93;;;;;;;33.10;36.56;98259.84;5066830;28;20048;-61
2023/05/12 06:55:26;;;;;;;18.23;6.47;;;;;;;33.10;33.86;98257.09;5085545;28;20048;-61
2023/05/12 06:57:55;;;;;;;12.32;6.55;;;;;;;33.17;32.31;98257.31;5072106;28;20044;-61
2023/05/12 07:00:25;;;;;;;14.90;6.07;;;;;;;32.96;33.04;98252.03;5089372;28;20067;-63
2023/05/12 07:02:55;;;;;;;11.27;5.90;;;;;;;33.23;31.68;98244.94;5091765;28;20422;-63
2023/05/12 07:05:24;;;;;;;13.65;5.55;;;;;;;33.38;33.05;98255.94;5089108;28;20375;-61
2023/05/12 07:07:54;;;;;;;20.08;5.30;;;;;;;33.47;31.73;98244.78;5090144;28;20075;-63
2023/05/12 07:10:23;;;;;;;16.67;5.55;;;;;;;33.45;32.65;98249.03;5089294;28;20050;-62
2023/05/12 07:12:54;;;;;;;9.20;4.95;;;;;;;33.28;33.68;98248.19;5089116;28;20040;-61
2023/05/12 07:15:27;;;;;;;14.15;4.97;;;;;;;33.33;31.62;98241.66;5089213;28;20074;-63
2023/05/12 07:18:00;;;;;;;10.53;5.47;;;;;;;33.36;29.62;98238.22;5089842;28;20079;-63
2023/05/12 07:20:30;;;;;;;13.63;5.43;;;;;;;33.15;29.51;98227.47;5062922;28;20121;-61
2023/05/12 07:23:00;;;;;;;9.73;5.10;;;;;;;33.12;27.28;98225.41;5088940;28;20135;-62
2023/05/12 07:25:30;;;;;;;14.00;4.82;;;;;;;33.18;29.19;98223.25;5088313;28;20482;-63
2023/05/12 07:27:59;;;;;;;21.25;5.68;;;;;;;33.41;30.49;98227.75;5071019;28;20140;-61
2023/05/12 07:30:29;;;;;;;12.10;5.22;;;;;;;33.33;30.71;98217.75;5088606;28;20139;-62
2023/05/12 07:33:00;;;;;;;15.73;5.72;;;;;;;33.35;30.38;98223.69;5071914;28;20138;-64
2023/05/12 07:35:29;;;;;;;19.00;5.47;;;;;;;33.33;32.54;98219.69;5094093;28;20047;-64
2023/05/12 07:38:02;;;;;;;10.95;5.63;;;;;;;33.31;29.77;98222.00;5089007;28;20048;-64
2023/05/12 07:40:31;;;;;;;8.00;4.60;;;;;;;33.30;31.72;98209.44;5086899;28;20056;-63
2023/05/12 07:43:01;;;;;;;7.93;4.28;;;;;;;33.33;32.01;98208.72;5069512;28;20048;-63
2023/05/12 07:45:30;;;;;;;9.75;4.20;;;;;;;33.28;30.55;98212.50;5093672;28;20135;-64
2023/05/12 07:48:00;;;;;;;13.15;4.95;;;;;;;33.21;29.60;98200.56;5109591;28;20044;-64
2023/05/12 07:50:30;;;;;;;12.43;5.03;;;;;;;33.06;33.24;98195.84;5109141;28;20039;-65
2023/05/12 07:52:59;;;;;;;12.80;4.38;;;;;;;33.10;29.22;98188.50;5089709;28;20109;-63
2023/05/12 07:55:29;;;;;;;7.97;4.00;;;;;;;33.21;28.49;98190.38;5070625;28;20059;-63
2023/05/12 07:57:59;;;;;;;17.00;4.07;;;;;;;33.20;30.56;98198.97;5070223;28;20063;-64
2023/05/12 08:00:29;;;;;;;9.18;4.68;;;;;;;33.41;29.46;98194.78;5088500;28;20070;-64
2023/05/12 08:02:59;;;;;;;12.60;5.38;;;;;;;33.32;31.32;98188.72;5088543;28;20067;-63
2023/05/12 08:05:28;;;;;;;9.52;4.60;;;;;;;33.41;30.42;98180.31;5070132;28;20125;-64
2023/05/12 08:07:58;;;;;;;10.45;4.55;;;;;;;33.29;28.76;98174.88;5088110;28;20094;-63
2023/05/12 08:10:28;;;;;;;11.80;5.00;;;;;;;33.27;28.89;98174.44;5070234;28;20392;-63
2023/05/12 08:12:58;;;;;;;13.23;5.35;;;;;;;33.38;28.67;98178.25;5088682;28;20048;-63
2023/05/12 08:15:27;;;;;;;15.82;5.53;;;;;;;33.38;26.95;98159.03;5088006;28;20144;-64
2023/05/12 08:17:57;;;;;;;14.63;5.72;;;;;;;33.37;29.50;98165.69;5090973;28;20483;-64
2023/05/12 08:20:26;;;;;;;17.58;5.38;;;;;;;33.37;27.68;98155.47;5069650;28;20430;-64
2023/05/12 08:22:56;;;;;;;10.00;4.90;;;;;;;33.35;28.30;98151.50;5069285;28;20052;-64
2023/05/12 08:25:26;;;;;;;8.88;5.10;;;;;;;33.55;29.37;98146.88;5083954;28;20384;-64
2023/05/12 08:27:58;;;;;;;11.38;5.50;;;;;;;33.30;27.89;98155.31;5052541;28;20044;-63
2023/05/12 08:30:27;;;;;;;12.90;5.00;;;;;;;33.02;29.38;98142.81;5088523;28;20074;-64
2023/05/12 08:32:57;;;;;;;14.40;5.47;;;;;;;32.84;29.04;98134.13;5088046;28;20113;-64
2023/05/12 08:35:26;;;;;;;14.27;6.45;;;;;;;32.86;29.11;98134.56;5087591;28;20055;-64
2023/05/12 08:37:58;;;;;;;14.02;5.65;;;;;;;32.86;29.56;98131.81;5087588;28;20102;-64
2023/05/12 08:40:30;;;;;;;19.00;6.40;;;;;;;32.66;29.79;98125.41;5088429;28;20551;-63
2023/05/12 08:43:06;;;;;;;;;;;;;;;32.51;28.65;98126.16;5069448;28;20151;-64
2023/05/12 08:45:38;;;;;;;13.30;6.60;;;;;;;32.68;26.90;98117.63;5087427;28;19955;-63
2023/05/12 08:48:14;;;;;;;12.20;6.80;;;;;;;32.65;27.99;98123.03;5087358;28;20048;-64
2023/05/12 08:50:45;;;;;;;13.48;6.82;;;;;;;32.52;28.69;98114.03;5069544;28;20056;-64
2023/05/12 08:53:18;;;;;;;18.40;7.00;;;;;;;32.61;28.37;98113.88;5082947;28;20048;-64
2023/05/12 08:55:48;;;;;;;15.90;7.50;;;;;;;32.77;28.67;98110.03;5087618;28;20079;-63
2023/05/12 08:58:37;;;;;;;16.25;7.40;;;;;;;32.87;29.64;98106.78;5087502;28;20052;-64
2023/05/12 09:01:13;;;;;;;14.15;7.80;;;;;;;32.80;30.47;98112.06;5087193;28;20052;-64
2023/05/12 09:03:43;;;;;;;16.38;8.15;;;;;;;32.77;27.69;98112.78;5087419;28;20059;-64
2023/05/12 09:06:13;;;;;;;14.88;8.00;;;;;;;32.76;28.94;98104.88;5048613;28;20048;-65
2023/05/12 09:08:44;;;;;;;16.67;8.23;;;;;;;32.81;28.30;98094.44;5078626;28;20053;-64
2023/05/12 09:11:15;;;;;;;15.80;8.38;;;;;;;32.63;29.49;98093.19;5086527;28;20056;-63
2023/05/12 09:14:03;;;;;;;20.02;8.25;;;;;;;32.98;25.64;98091.34;5067780;28;20051;-64
2023/05/12 09:16:34;;;;;;;12.32;8.27;;;;;;;32.95;28.89;98088.53;5067654;28;20149;-64
2023/05/12 09:19:04;;;;;;;23.95;9.25;;;;;;;32.85;31.66;98083.56;5086365;28;20124;-64
2023/05/12 09:21:34;;;;;;;11.60;8.38;;;;;;;32.79;29.26;98083.06;5087491;28;20047;-64
2023/05/12 09:24:06;;;;;;;16.30;8.90;;;;;;;32.67;29.29;98082.31;5081149;28;20519;-64
2023/05/12 09:26:48;;;;;;;16.70;8.27;;;;;;;32.70;30.06;98087.09;5068592;28;20040;-63
2023/05/12 09:29:19;;;;;;;17.48;8.32;;;;;;;32.80;31.28;98073.66;5085770;28;20067;-65
2023/05/12 09:32:01;;;;;;;17.48;9.15;;;;;;;32.82;31.81;98076.84;5085455;28;20052;-65
2023/05/12 09:34:39;;;;;;;16.87;9.97;;;;;;;32.74;31.52;98068.78;5085929;28;20366;-64
2023/05/12 09:37:09;;;;;;;16.98;8.45;;;;;;;32.50;30.10;98061.47;5083776;28;20569;-65
2023/05/12 09:39:43;;;;;;;15.43;8.20;;;;;;;32.59;29.97;98058.56;5084365;28;20122;-65
2023/05/12 09:42:14;;;;;;;15.10;8.88;;;;;;;32.54;30.23;98060.41;5085241;28;20063;-64
2023/05/12 09:44:45;;;;;;;16.10;9.05;;;;;;;32.61;30.50;98059.81;5087282;28;20101;-64
2023/05/12 09:47:16;;;;;;;16.20;8.55;;;;;;;32.61;32.30;98057.09;5091134;28;20128;-64
2023/05/12 09:49:51;;;;;;;13.75;9.10;;;;;;;32.65;31.81;98051.72;5068601;28;20067;-64
2023/05/12 09:52:21;;;;;;;16.70;9.00;;;;;;;32.61;32.40;98051.59;5079404;28;20051;-64
2023/05/12 09:54:51;;;;;;;17.27;9.93;;;;;;;32.37;30.63;98051.72;5049079;28;20044;-65
2023/05/12 09:57:23;;;;;;;20.08;9.82;;;;;;;32.20;30.00;98054.78;5048729;28;20118;-64
2023/05/12 09:59:53;;;;;;;18.67;9.80;;;;;;;32.28;28.69;98049.16;5078060;28;20113;-65
2023/05/12 10:02:24;;;;;;;17.60;8.95;;;;;;;32.35;29.46;98046.59;5086749;28;20048;-64
2023/05/12 10:05:01;;;;;;;15.65;9.10;;;;;;;32.43;30.49;98037.44;5090151;28;20468;-64
2023/05/12 10:07:33;;;;;;;18.52;9.43;;;;;;;32.51;30.44;98041.13;5084746;28;20557;-63
2023/05/12 10:10:06;;;;;;;17.88;9.18;;;;;;;32.33;30.07;98037.94;5086509;28;20044;-63
2023/05/12 10:12:38;;;;;;;20.48;10.05;;;;;;;32.39;29.98;98028.31;5086190;28;20079;-64
2023/05/12 10:15:11;;;;;;;18.90;9.02;;;;;;;32.41;28.95;98025.19;5085696;28;20455;-64
2023/05/12 10:17:43;;;;;;;21.40;9.57;;;;;;;32.44;29.43;98019.81;5085498;28;20055;-65
2023/05/12 10:20:16;;;;;;;17.13;8.95;;;;;;;32.45;30.29;98020.59;5083996;28;20039;-63
2023/05/12 10:22:49;;;;;;;15.95;8.90;;;;;;;32.47;30.09;98015.56;5083230;28;20375;-67
2023/05/12 10:25:20;;;;;;;21.10;9.70;;;;;;;32.49;30.22;98011.31;5067037;28;20036;-67
2023/05/12 10:27:52;;;;;;;17.52;9.75;;;;;;;32.45;30.27;98004.94;5085438;28;20051;-66
2023/05/12 10:30:23;;;;;;;24.33;9.77;;;;;;;32.24;29.72;98007.16;5066582;28;20043;-66
2023/05/12 10:32:57;;;;;;;21.55;9.98;;;;;;;32.31;29.28;97999.09;5066205;28;20048;-65
2023/05/12 10:35:39;;;;;;;18.70;9.45;;;;;;;32.28;30.62;97999.00;5062273;28;20459;-66
2023/05/12 10:38:11;;;;;;;21.13;8.23;;;;;;;32.19;29.99;98004.66;5084756;28;20054;-66
2023/05/12 10:40:58;;;;;;;15.07;8.63;;;;;;;32.18;30.26;97992.09;5096607;28;20108;-65
2023/05/12 10:43:38;;;;;;;16.85;8.85;;;;;;;32.20;31.80;97992.56;5106671;28;20075;-66
2023/05/12 10:46:23;;;;;;;16.15;8.15;;;;;;;32.14;30.29;97987.66;5088016;28;20164;-67
2023/05/12 10:49:02;;;;;;;17.63;8.20;;;;;;;32.19;28.98;97981.94;5089393;28;20058;-64
2023/05/12 10:51:58;;;;;;;17.48;8.13;;;;;;;32.14;30.18;97987.66;5104991;28;20071;-65
2023/05/12 10:54:29;;;;;;;19.88;8.63;;;;;;;32.16;30.96;97983.44;5105288;28;20059;-65
2023/05/12 10:57:00;;;;;;;19.33;9.35;;;;;;;32.22;28.41;97973.03;5105739;28;20054;-62
2023/05/12 10:59:32;;;;;;;15.20;8.25;;;;;;;32.20;31.00;97983.53;5087274;28;20055;-62
2023/05/12 11:02:13;;;;;;;13.18;8.30;;;;;;;32.18;31.36;97974.84;5104594;28;20460;-63
2023/05/12 11:04:55;;;;;;;19.80;8.40;;;;;;;32.20;31.35;97967.88;5071284;28;20482;-61
2023/05/12 11:07:28;;;;;;;13.57;8.80;;;;;;;32.20;30.72;97973.38;5101660;28;20092;-60
2023/05/12 11:10:02;;;;;;;25.75;9.75;;;;;;;32.25;29.38;97966.84;5104032;28;20104;-61
2023/05/12 11:12:36;;;;;;;;;;;;;;;32.36;29.30;97959.66;5080198;28;20526;-60
2023/05/12 11:15:07;;;;;;;15.65;7.68;;;;;;;32.37;28.95;97966.75;5083703;28;19924;-63
2023/05/12 11:17:39;;;;;;;18.25;8.18;;;;;;;32.34;29.55;97959.22;5086589;28;20838;-63
2023/05/12 11:20:21;;;;;;;;;;;;;;;32.33;28.07;97957.63;5104381;28;20526;-62
2023/05/12 11:22:53;;;;;;;15.35;8.10;;;;;;;32.31;29.51;97968.94;5103397;28;20406;-61
2023/05/12 11:25:28;;;;;;;21.73;8.18;;;;;;;32.33;28.71;97957.63;4731995;28;10000600;-67
2023/05/12 11:28:00;;;;;;;16.58;8.90;;;;;;;32.31;28.96;97957.22;5084765;28;20717;-61
2023/05/12 11:30:31;;;;;;;13.40;8.52;;;;;;;32.19;30.80;97965.50;5102880;28;20055;-62
2023/05/12 11:33:02;;;;;;;14.27;8.23;;;;;;;32.12;30.76;97962.56;5104409;28;20061;-61
2023/05/12 11:35:33;;;;;;;12.00;8.27;;;;;;;32.01;30.16;97959.50;5103563;28;20055;-60
2023/05/12 11:38:17;;;;;;;12.55;7.72;;;;;;;31.98;30.36;97955.53;5102263;28;20087;-59
2023/05/12 11:40:47;;;;;;;16.05;8.52;;;;;;;31.94;31.56;97957.38;5104298;28;20129;-61